createdAt,value
2019-05-12T00:00:43.344Z,14.50
2019-05-12T00:03:14.164Z,14.50
2019-05-12T00:05:44.658Z,14.50
2019-05-12T00:08:15.734Z,14.40
2019-05-12T00:10:47.851Z,14.30
2019-05-12T00:13:19.113Z,14.20
2019-05-12T00:15:49.750Z,14.30
2019-05-12T00:18:20.983Z,14.30
2019-05-12T00:20:51.664Z,14.30
2019-05-12T00:23:27.521Z,14.30
2019-05-12T00:25:55.064Z,14.30
2019-05-12T00:28:28.230Z,14.30
2019-05-12T00:30:58.214Z,14.30
2019-05-12T00:33:28.802Z,14.30
2019-05-12T00:35:59.486Z,14.30
2019-05-12T00:38:30.357Z,14.30
2019-05-12T00:41:00.867Z,14.30
2019-05-12T00:43:31.673Z,14.30
2019-05-12T00:46:02.358Z,14.30
2019-05-12T00:48:32.919Z,14.30
2019-05-12T00:51:03.555Z,14.30
2019-05-12T00:53:39.708Z,14.30
2019-05-12T00:56:08.310Z,14.20
2019-05-12T00:58:38.451Z,14.20
2019-05-12T01:01:09.416Z,14.30
2019-05-12T01:03:40.693Z,14.30
2019-05-12T01:06:11.330Z,14.30
2019-05-12T01:08:42.133Z,14.30
2019-05-12T01:11:12.781Z,14.30
2019-05-12T01:13:43.773Z,14.30
2019-05-12T01:16:14.494Z,14.20
2019-05-12T01:18:47.830Z,14.30
2019-05-12T01:21:18.526Z,14.20
2019-05-12T01:23:56.405Z,14.20
2019-05-12T01:26:21.922Z,14.20
2019-05-12T01:28:52.608Z,14.20
2019-05-12T01:31:25.015Z,14.10
2019-05-12T01:33:55.550Z,14.10
2019-05-12T01:36:28.489Z,14.10
2019-05-12T01:39:01.611Z,14.10
2019-05-12T01:41:30.550Z,14.10
2019-05-12T01:44:01.168Z,14.10
2019-05-12T01:46:33.010Z,14.10
2019-05-12T01:49:05.136Z,14.10
2019-05-12T01:51:35.732Z,14.10
2019-05-12T01:54:11.733Z,14.00
2019-05-12T01:56:38.664Z,14.00
2019-05-12T01:59:09.165Z,14.00
2019-05-12T02:01:39.673Z,14.00
2019-05-12T02:04:10.418Z,14.00
2019-05-12T02:06:40.909Z,14.00
2019-05-12T02:09:18.546Z,14.00
2019-05-12T02:11:48.579Z,13.90
2019-05-12T02:14:19.253Z,13.90
2019-05-12T02:16:50.019Z,13.80
2019-05-12T02:19:20.561Z,13.80
2019-05-12T02:21:51.307Z,13.70
2019-05-12T02:24:27.043Z,13.70
2019-05-12T02:26:55.183Z,13.80
2019-05-12T02:29:28.413Z,13.90
2019-05-12T02:31:58.940Z,13.80
2019-05-12T02:34:29.985Z,13.90
2019-05-12T02:37:04.976Z,13.80
2019-05-12T02:39:35.298Z,13.80
2019-05-12T02:42:06.627Z,13.70
2019-05-12T02:44:37.324Z,13.70
2019-05-12T02:47:08.442Z,13.70
2019-05-12T02:49:39.029Z,13.60
2019-05-12T02:52:09.901Z,13.70
2019-05-12T02:54:51.930Z,13.60
2019-05-12T02:57:15.872Z,13.60
2019-05-12T02:59:48.551Z,13.60
2019-05-12T03:02:20.463Z,13.70
2019-05-12T03:04:54.773Z,13.60
2019-05-12T03:07:28.198Z,13.60
2019-05-12T03:10:05.048Z,13.60
2019-05-12T03:12:34.544Z,13.60
2019-05-12T03:15:05.911Z,13.60
2019-05-12T03:17:36.994Z,13.60
2019-05-12T03:20:07.950Z,13.70
2019-05-12T03:22:38.660Z,13.70
2019-05-12T03:25:20.469Z,13.70
2019-05-12T03:27:44.471Z,13.70
2019-05-12T03:30:19.354Z,13.60
2019-05-12T03:32:48.023Z,13.60
2019-05-12T03:35:20.204Z,13.60
2019-05-12T03:37:50.818Z,13.60
2019-05-12T03:40:24.681Z,13.70
2019-05-12T03:42:54.883Z,13.70
2019-05-12T03:45:27.624Z,13.70
2019-05-12T03:47:58.159Z,13.60
2019-05-12T03:50:28.681Z,13.70
2019-05-12T03:53:04.159Z,13.70
2019-05-12T03:55:38.162Z,13.70
2019-05-12T03:58:04.797Z,13.80
2019-05-12T04:00:36.356Z,13.80
2019-05-12T04:03:07.358Z,13.80
2019-05-12T04:05:37.929Z,13.90
2019-05-12T04:08:08.516Z,13.90
2019-05-12T04:10:39.472Z,14.00
2019-05-12T04:13:11.159Z,14.00
2019-05-12T04:15:45.471Z,14.00
2019-05-12T04:18:16.171Z,14.10
2019-05-12T04:20:46.859Z,14.10
2019-05-12T04:23:17.637Z,14.10
2019-05-12T04:25:57.054Z,14.10
2019-05-12T04:28:20.376Z,14.10
2019-05-12T04:30:51.106Z,14.20
2019-05-12T04:33:25.418Z,14.20
2019-05-12T04:35:55.353Z,14.30
2019-05-12T04:38:26.366Z,14.30
2019-05-12T04:40:57.088Z,14.30
2019-05-12T04:43:27.723Z,14.30
2019-05-12T04:45:58.560Z,14.40
2019-05-12T04:48:29.406Z,14.40
2019-05-12T04:51:00.121Z,14.50
2019-05-12T04:53:30.773Z,14.50
2019-05-12T04:56:10.859Z,14.50
2019-05-12T04:58:35.052Z,14.60
2019-05-12T05:01:06.602Z,14.60
2019-05-12T05:03:37.394Z,14.60
2019-05-12T05:06:07.913Z,14.60
2019-05-12T05:08:38.769Z,14.60
2019-05-12T05:11:09.663Z,14.60
2019-05-12T05:13:40.601Z,14.60
2019-05-12T05:16:14.139Z,14.70
2019-05-12T05:18:44.013Z,14.70
2019-05-12T05:21:14.631Z,14.70
2019-05-12T05:23:45.410Z,14.70
2019-05-12T05:26:24.588Z,14.80
2019-05-12T05:28:48.540Z,14.80
2019-05-12T05:31:19.274Z,14.90
2019-05-12T05:33:50.290Z,15.00
2019-05-12T05:36:20.954Z,15.00
2019-05-12T05:38:57.368Z,15.10
2019-05-12T05:41:24.357Z,15.20
2019-05-12T05:43:58.445Z,15.20
2019-05-12T05:46:27.986Z,15.40
2019-05-12T05:48:58.575Z,15.50
2019-05-12T05:51:29.327Z,15.60
2019-05-12T05:53:59.954Z,15.70
2019-05-12T05:56:39.680Z,15.80
2019-05-12T05:59:04.672Z,16.00
2019-05-12T06:01:40.162Z,16.10
2019-05-12T06:04:08.779Z,16.30
2019-05-12T06:06:42.772Z,16.50
2019-05-12T06:09:14.023Z,16.70
2019-05-12T06:11:44.611Z,17.00
2019-05-12T06:14:16.239Z,17.30
2019-05-12T06:16:47.189Z,17.70
2019-05-12T06:19:17.695Z,17.90
2019-05-12T06:21:48.469Z,18.00
2019-05-12T06:24:20.159Z,18.10
2019-05-12T06:26:59.982Z,18.30
2019-05-12T06:29:25.113Z,18.10
2019-05-12T06:31:55.329Z,18.10
2019-05-12T06:34:25.979Z,18.00
2019-05-12T06:36:57.257Z,17.90
2019-05-12T06:39:30.127Z,17.90
2019-05-12T06:42:11.219Z,17.80
2019-05-12T06:44:33.528Z,17.80
2019-05-12T06:47:08.181Z,17.70
2019-05-12T06:49:36.277Z,17.70
2019-05-12T06:52:07.299Z,17.70
2019-05-12T06:54:44.584Z,17.80
2019-05-12T06:57:21.390Z,17.90
2019-05-12T06:59:50.906Z,18.20
2019-05-12T07:02:15.328Z,18.50
2019-05-12T07:04:47.483Z,19.00
2019-05-12T07:07:18.083Z,19.70
2019-05-12T07:09:53.747Z,20.60
2019-05-12T07:12:24.934Z,21.60
2019-05-12T07:14:55.645Z,22.70
2019-05-12T07:17:49.598Z,23.70
2019-05-12T07:20:17.832Z,24.70
2019-05-12T07:22:48.891Z,25.10
2019-05-12T07:25:24.521Z,25.50
2019-05-12T07:27:58.713Z,25.60
2019-05-12T07:30:31.915Z,26.00
2019-05-12T07:33:04.284Z,26.30
2019-05-12T07:35:34.831Z,25.60
2019-05-12T07:38:06.183Z,25.60
2019-05-12T07:40:37.906Z,25.30
2019-05-12T07:43:16.335Z,25.00
2019-05-12T07:45:46.827Z,24.80
2019-05-12T07:48:17.855Z,24.60
2019-05-12T07:50:50.224Z,24.60
2019-05-12T07:53:22.998Z,24.90
2019-05-12T07:55:53.896Z,25.20
2019-05-12T07:58:24.563Z,25.30
2019-05-12T08:01:02.621Z,25.00
2019-05-12T08:03:27.978Z,24.70
2019-05-12T08:06:01.796Z,24.30
2019-05-12T08:08:30.865Z,23.80
2019-05-12T08:11:04.203Z,23.40
2019-05-12T08:13:37.603Z,23.20
2019-05-12T08:16:06.867Z,22.90
2019-05-12T08:18:40.959Z,22.80
2019-05-12T08:21:09.835Z,22.60
2019-05-12T08:23:40.354Z,22.40
2019-05-12T08:26:16.156Z,22.30
2019-05-12T08:28:44.209Z,22.30
2019-05-12T08:31:15.287Z,22.10
2019-05-12T08:33:45.793Z,22.00
2019-05-12T08:36:16.611Z,21.80
2019-05-12T08:38:47.132Z,21.70
2019-05-12T08:41:17.689Z,21.80
2019-05-12T08:43:53.128Z,21.80
2019-05-12T08:46:20.546Z,22.00
2019-05-12T08:48:57.916Z,22.10
2019-05-12T08:51:25.172Z,22.10
2019-05-12T08:54:02.454Z,22.10
2019-05-12T08:56:29.527Z,22.30
2019-05-12T08:59:00.178Z,22.20
2019-05-12T09:01:30.980Z,22.30
2019-05-12T09:04:06.524Z,22.60
2019-05-12T09:06:34.619Z,22.80
2019-05-12T09:09:07.432Z,22.90
2019-05-12T09:11:38.997Z,23.00
2019-05-12T09:14:09.451Z,23.10
2019-05-12T09:16:40.048Z,23.20
2019-05-12T09:19:16.679Z,23.20
2019-05-12T09:21:44.273Z,23.20
2019-05-12T09:24:21.859Z,23.30
2019-05-12T09:26:47.993Z,23.30
2019-05-12T09:29:18.778Z,23.40
2019-05-12T09:31:50.655Z,23.30
2019-05-12T09:34:23.535Z,23.10
2019-05-12T09:36:59.554Z,23.30
2019-05-12T09:39:26.760Z,23.40
2019-05-12T09:41:57.511Z,23.10
2019-05-12T09:44:30.479Z,23.10
2019-05-12T09:47:00.524Z,23.00
2019-05-12T09:49:38.459Z,22.70
2019-05-12T09:52:03.849Z,22.50
2019-05-12T09:54:40.668Z,22.40
2019-05-12T09:57:07.472Z,22.30
2019-05-12T09:59:38.182Z,22.10
2019-05-12T10:02:10.703Z,21.90
2019-05-12T10:04:43.644Z,21.80
2019-05-12T10:07:14.093Z,21.60
2019-05-12T10:09:49.306Z,21.60
2019-05-12T10:12:17.474Z,21.50
2019-05-12T10:14:48.217Z,21.50
2019-05-12T10:17:20.215Z,21.40
2019-05-12T10:19:56.171Z,21.40
2019-05-12T10:22:39.754Z,21.40
2019-05-12T10:25:09.227Z,21.40
2019-05-12T10:27:40.175Z,21.60
2019-05-12T10:30:13.413Z,21.40
2019-05-12T10:32:44.320Z,21.40
2019-05-12T10:35:21.037Z,21.50
2019-05-12T10:37:48.282Z,21.50
2019-05-12T10:40:18.956Z,21.50
2019-05-12T10:42:49.885Z,21.60
2019-05-12T10:45:23.513Z,21.70
2019-05-12T10:47:54.467Z,21.70
2019-05-12T10:50:25.612Z,21.70
2019-05-12T10:52:56.734Z,22.00
2019-05-12T10:55:27.393Z,21.90
2019-05-12T10:58:01.571Z,22.00
2019-05-12T11:00:30.818Z,21.90
2019-05-12T11:03:10.356Z,21.60
2019-05-12T11:05:35.255Z,21.50
2019-05-12T11:08:10.799Z,21.30
2019-05-12T11:10:38.696Z,21.10
2019-05-12T11:13:10.038Z,20.80
2019-05-12T11:15:46.081Z,20.70
2019-05-12T11:18:20.679Z,20.50
2019-05-12T11:20:50.544Z,20.30
2019-05-12T11:23:21.564Z,20.00
2019-05-12T11:25:53.351Z,19.80
2019-05-12T11:28:24.631Z,19.70
2019-05-12T11:30:55.295Z,19.40
2019-05-12T11:33:26.025Z,19.30
2019-05-12T11:35:56.793Z,19.10
2019-05-12T11:38:27.508Z,19.00
2019-05-12T11:40:57.960Z,18.80
2019-05-12T11:43:29.816Z,18.60
2019-05-12T11:46:00.762Z,18.50
2019-05-12T11:48:33.736Z,18.40
2019-05-12T11:51:04.119Z,18.20
2019-05-12T11:53:35.135Z,18.20
2019-05-12T11:56:07.720Z,18.10
2019-05-12T11:58:41.262Z,17.90
2019-05-12T12:01:13.465Z,17.80
2019-05-12T12:03:44.349Z,17.80
2019-05-12T12:06:14.975Z,17.80
2019-05-12T12:08:46.026Z,17.70
2019-05-12T12:11:24.318Z,17.50
2019-05-12T12:13:53.414Z,17.40
2019-05-12T12:16:23.860Z,17.50
2019-05-12T12:19:02.175Z,17.40
2019-05-12T12:21:27.063Z,17.40
2019-05-12T12:23:58.048Z,17.50
2019-05-12T12:26:30.628Z,17.40
2019-05-12T12:29:03.361Z,17.40
2019-05-12T12:31:50.410Z,17.40
2019-05-12T12:34:29.777Z,17.30
2019-05-12T12:36:54.352Z,17.30
2019-05-12T12:39:25.704Z,17.20
2019-05-12T12:42:00.573Z,17.10
2019-05-12T12:44:28.627Z,16.90
2019-05-12T12:47:01.645Z,16.80
2019-05-12T12:49:33.747Z,16.70
2019-05-12T12:52:03.720Z,16.50
2019-05-12T12:54:34.427Z,16.50
2019-05-12T12:57:09.634Z,16.30
2019-05-12T12:59:45.451Z,16.10
2019-05-12T13:02:14.230Z,16.00
2019-05-12T13:04:50.050Z,15.90
2019-05-12T13:07:16.965Z,15.70
2019-05-12T13:09:47.556Z,15.40
2019-05-12T13:12:19.721Z,15.10
2019-05-12T13:14:50.084Z,15.00
2019-05-12T13:17:20.668Z,14.80
2019-05-12T13:19:54.711Z,14.70
2019-05-12T13:22:24.524Z,14.60
2019-05-12T13:24:58.341Z,14.70
2019-05-12T13:27:29.218Z,14.60
2019-05-12T13:30:01.890Z,14.50
2019-05-12T13:32:37.789Z,14.40
2019-05-12T13:35:09.655Z,14.30
2019-05-12T13:37:39.295Z,14.20
2019-05-12T13:40:10.929Z,14.10
2019-05-12T13:42:43.796Z,14.00
2019-05-12T13:45:17.396Z,13.90
2019-05-12T13:47:48.273Z,13.90
2019-05-12T13:50:22.069Z,13.80
2019-05-12T13:52:54.042Z,13.80
2019-05-12T13:55:24.467Z,13.90
2019-05-12T13:57:57.698Z,13.70
2019-05-12T14:00:27.489Z,13.60
2019-05-12T14:03:04.757Z,13.50
2019-05-12T14:05:32.020Z,13.40
2019-05-12T14:08:03.964Z,13.20
2019-05-12T14:10:37.369Z,13.00
2019-05-12T14:13:07.609Z,13.00
2019-05-12T14:15:38.538Z,12.80
2019-05-12T14:18:10.434Z,12.90
2019-05-12T14:20:44.858Z,12.80
2019-05-12T14:23:14.794Z,12.80
2019-05-12T14:25:46.565Z,12.70
2019-05-12T14:28:17.555Z,12.70
2019-05-12T14:30:51.600Z,12.60
2019-05-12T14:33:21.126Z,12.60
2019-05-12T14:35:53.757Z,12.50
2019-05-12T14:38:28.382Z,12.40
2019-05-12T14:41:01.296Z,12.30
2019-05-12T14:43:28.854Z,12.20
2019-05-12T14:46:00.129Z,12.10
2019-05-12T14:48:33.539Z,12.10
2019-05-12T14:51:04.213Z,12.00
2019-05-12T14:53:38.321Z,12.00
2019-05-12T14:56:07.053Z,11.90
2019-05-12T14:58:37.905Z,11.80
2019-05-12T15:01:08.543Z,11.70
2019-05-12T15:03:42.188Z,11.70
2019-05-12T15:06:14.011Z,11.70
2019-05-12T15:08:44.971Z,11.70
2019-05-12T15:11:16.821Z,11.70
2019-05-12T15:13:47.584Z,11.70
2019-05-12T15:16:18.563Z,11.50
2019-05-12T15:18:50.321Z,11.40
2019-05-12T15:21:27.505Z,11.40
2019-05-12T15:23:54.883Z,11.40
2019-05-12T15:26:27.079Z,11.40
2019-05-12T15:28:57.780Z,11.40
2019-05-12T15:31:37.062Z,11.40
2019-05-12T15:34:08.077Z,11.40
2019-05-12T15:36:43.554Z,11.40
2019-05-12T15:39:10.911Z,11.40
2019-05-12T15:41:41.878Z,11.40
2019-05-12T15:44:14.566Z,11.40
2019-05-12T15:46:46.673Z,11.40
2019-05-12T15:49:18.400Z,11.40
2019-05-12T15:51:54.152Z,11.40
2019-05-12T15:54:21.408Z,11.40
2019-05-12T15:56:53.259Z,11.40
2019-05-12T15:59:24.740Z,11.40
2019-05-12T16:02:08.654Z,11.40
2019-05-12T16:04:27.892Z,11.40
2019-05-12T16:06:58.786Z,11.40
2019-05-12T16:09:29.706Z,11.40
2019-05-12T16:12:00.925Z,11.30
2019-05-12T16:14:36.782Z,11.30
2019-05-12T16:17:06.634Z,11.30
2019-05-12T16:19:37.558Z,11.30
2019-05-12T16:22:08.196Z,11.20
2019-05-12T16:24:43.403Z,11.20
2019-05-12T16:27:13.882Z,11.20
2019-05-12T16:29:50.175Z,11.20
2019-05-12T16:32:26.947Z,11.20
2019-05-12T16:34:54.131Z,11.10
2019-05-12T16:37:31.242Z,11.10
2019-05-12T16:39:57.500Z,11.20
2019-05-12T16:42:28.058Z,11.20
2019-05-12T16:45:06.096Z,11.10
2019-05-12T16:47:33.788Z,11.20
2019-05-12T16:50:08.567Z,11.20
2019-05-12T16:52:40.713Z,11.10
2019-05-12T16:55:10.333Z,11.10
2019-05-12T16:57:50.213Z,11.10
2019-05-12T17:00:14.416Z,11.10
2019-05-12T17:02:53.627Z,11.20
2019-05-12T17:05:20.525Z,11.10
2019-05-12T17:07:55.203Z,11.10
2019-05-12T17:10:24.399Z,11.10
2019-05-12T17:12:55.243Z,11.10
2019-05-12T17:15:26.205Z,11.10
2019-05-12T17:18:01.467Z,11.10
2019-05-12T17:20:30.165Z,11.10
2019-05-12T17:23:03.230Z,11.10
2019-05-12T17:25:34.401Z,11.20
2019-05-12T17:28:05.866Z,11.10
2019-05-12T17:30:36.755Z,11.10
2019-05-12T17:33:07.432Z,11.00
2019-05-12T17:35:37.983Z,11.10
2019-05-12T17:38:11.762Z,11.10
2019-05-12T17:40:41.340Z,11.10
2019-05-12T17:43:12.308Z,11.00
2019-05-12T17:45:44.297Z,11.00
2019-05-12T17:48:15.116Z,11.00
2019-05-12T17:50:50.453Z,11.00
2019-05-12T17:53:18.678Z,11.00
2019-05-12T17:55:52.958Z,11.00
2019-05-12T17:58:24.019Z,11.00
2019-05-12T18:00:54.756Z,11.00
2019-05-12T18:03:25.962Z,11.00
2019-05-12T18:05:56.937Z,11.00
2019-05-12T18:08:32.764Z,11.00
2019-05-12T18:11:03.540Z,11.00
2019-05-12T18:13:34.533Z,11.00
2019-05-12T18:16:06.171Z,11.00
2019-05-12T18:18:38.391Z,11.00
2019-05-12T18:21:13.184Z,10.90
2019-05-12T18:23:43.622Z,10.90
2019-05-12T18:26:16.287Z,10.90
2019-05-12T18:28:47.312Z,11.00
2019-05-12T18:31:18.140Z,11.00
2019-05-12T18:33:53.759Z,11.00
2019-05-12T18:36:23.639Z,11.00
2019-05-12T18:39:04.463Z,10.90
2019-05-12T18:41:30.170Z,10.90
2019-05-12T18:44:01.048Z,10.90
2019-05-12T18:46:36.153Z,10.80
2019-05-12T18:49:12.082Z,10.80
2019-05-12T18:51:37.301Z,10.80
2019-05-12T18:54:10.456Z,10.70
2019-05-12T18:56:40.449Z,10.70
2019-05-12T18:59:11.845Z,10.70
2019-05-12T19:01:43.692Z,10.70
2019-05-12T19:04:14.960Z,10.60
2019-05-12T19:06:46.085Z,10.60
2019-05-12T19:09:16.983Z,10.60
2019-05-12T19:11:47.711Z,10.50
2019-05-12T19:14:18.675Z,10.50
2019-05-12T19:16:49.307Z,10.40
2019-05-12T19:19:20.424Z,10.30
2019-05-12T19:22:00.764Z,10.40
2019-05-12T19:24:23.755Z,10.40
2019-05-12T19:26:54.480Z,10.40
2019-05-12T19:29:29.873Z,10.40
2019-05-12T19:31:58.165Z,10.40
2019-05-12T19:34:31.735Z,10.40
2019-05-12T19:37:03.340Z,10.40
2019-05-12T19:39:34.807Z,10.30
2019-05-12T19:42:10.399Z,10.30
2019-05-12T19:44:38.317Z,10.30
2019-05-12T19:47:09.389Z,10.40
2019-05-12T19:49:47.744Z,10.30
2019-05-12T19:52:13.997Z,10.30
2019-05-12T19:54:44.957Z,10.30
2019-05-12T19:57:22.193Z,10.30
2019-05-12T19:59:50.727Z,10.30
2019-05-12T20:02:23.580Z,10.30
2019-05-12T20:04:56.702Z,10.30
2019-05-12T20:07:26.931Z,10.30
2019-05-12T20:10:00.494Z,10.30
2019-05-12T20:12:30.985Z,10.30
2019-05-12T20:15:03.960Z,10.20
2019-05-12T20:17:36.215Z,10.10
2019-05-12T20:20:08.186Z,10.10
2019-05-12T20:22:39.572Z,10.00
2019-05-12T20:25:11.038Z,10.10
2019-05-12T20:27:44.343Z,10.00
2019-05-12T20:30:17.281Z,10.00
2019-05-12T20:32:47.510Z,10.00
2019-05-12T20:35:18.662Z,10.00
2019-05-12T20:37:53.029Z,10.10
2019-05-12T20:40:23.749Z,10.00
2019-05-12T20:43:07.819Z,10.10
2019-05-12T20:45:26.524Z,10.00
2019-05-12T20:47:57.510Z,10.10
2019-05-12T20:50:33.059Z,10.00
2019-05-12T20:53:00.773Z,10.00
2019-05-12T20:55:39.457Z,10.00
2019-05-12T20:58:04.673Z,9.90
2019-05-12T21:00:45.409Z,9.90
2019-05-12T21:03:14.706Z,9.90
2019-05-12T21:05:50.841Z,9.90
2019-05-12T21:08:18.025Z,9.90
2019-05-12T21:10:49.101Z,9.90
2019-05-12T21:13:20.299Z,9.80
2019-05-12T21:15:54.046Z,9.80
2019-05-12T21:18:24.709Z,9.80
2019-05-12T21:20:55.615Z,9.70
2019-05-12T21:23:26.541Z,9.70
2019-05-12T21:25:58.301Z,9.70
2019-05-12T21:28:29.157Z,9.60
2019-05-12T21:31:00.239Z,9.70
2019-05-12T21:33:31.290Z,9.70
2019-05-12T21:36:03.781Z,9.70
2019-05-12T21:38:34.688Z,9.60
2019-05-12T21:41:07.755Z,9.60
2019-05-12T21:43:39.753Z,9.60
2019-05-12T21:46:12.610Z,9.60
2019-05-12T21:48:43.133Z,9.60
2019-05-12T21:51:16.856Z,9.50
2019-05-12T21:53:50.573Z,9.50
2019-05-12T21:56:18.866Z,9.50
2019-05-12T21:58:53.733Z,9.60
2019-05-12T22:01:23.911Z,9.50
2019-05-12T22:04:02.140Z,9.60
2019-05-12T22:06:27.352Z,9.50
2019-05-12T22:09:02.813Z,9.50
2019-05-12T22:11:35.412Z,9.40
2019-05-12T22:14:06.976Z,9.40
2019-05-12T22:16:43.748Z,9.40
2019-05-12T22:19:11.554Z,9.40
2019-05-12T22:21:49.333Z,9.30
2019-05-12T22:24:16.372Z,9.30
2019-05-12T22:26:48.180Z,9.30
2019-05-12T22:29:21.379Z,9.40
2019-05-12T22:31:51.403Z,9.40
2019-05-12T22:34:27.564Z,9.40
2019-05-12T22:36:59.091Z,9.30
2019-05-12T22:39:27.394Z,9.30
2019-05-12T22:41:58.531Z,9.30
2019-05-12T22:44:29.096Z,9.30
2019-05-12T22:47:04.125Z,9.30
2019-05-12T22:49:33.881Z,9.30
2019-05-12T22:52:07.153Z,9.30
2019-05-12T22:54:40.553Z,9.30
2019-05-12T22:57:09.987Z,9.30
2019-05-12T22:59:42.697Z,9.30
2019-05-12T23:02:15.960Z,9.20
2019-05-12T23:04:46.015Z,9.30
2019-05-12T23:07:19.114Z,9.20
2019-05-12T23:09:49.262Z,9.20
2019-05-12T23:12:20.344Z,9.20
2019-05-12T23:14:56.472Z,9.10
2019-05-12T23:17:24.622Z,9.20
2019-05-12T23:19:55.981Z,9.20
2019-05-12T23:22:29.378Z,9.20
2019-05-12T23:24:59.372Z,9.20
2019-05-12T23:27:30.095Z,9.20
2019-05-12T23:30:10.578Z,9.20
2019-05-12T23:32:34.634Z,9.20
2019-05-12T23:35:05.804Z,9.20
2019-05-12T23:37:40.175Z,9.20
2019-05-12T23:40:11.411Z,9.20
2019-05-12T23:42:41.354Z,9.20
2019-05-12T23:45:13.986Z,9.10
2019-05-12T23:47:44.713Z,9.20
2019-05-12T23:50:15.544Z,9.10
2019-05-12T23:52:46.170Z,9.20
2019-05-12T23:55:17.165Z,9.20
2019-05-12T23:57:47.778Z,9.20
